QFA452 YSSY-YMML
Flight info
| Callsign | QFA452 |
|---|---|
| Flight time | 1h 9m |
| Altitude | 40000 |
| Route | WOL H65 LEECE Q29 ML |
| Aircraft | B789/H-SDE1E2E3FGHIJ2J3J4J5M1RWXY/LB1D1 |
Departure
| Time | 2026-05-06 13:36 |
|---|---|
| Airport | Sydney Kingsford Smith International Airport (YSSY) |
Arrival
| Time | 2026-05-06 14:46 |
|---|---|
| Airport | Melbourne Airport (YMML) |
| Time | Latitude | Longitude | Altitude | Speed | Heading |
|---|---|---|---|---|---|
| 2026-05-06 12:47 | -33.93113 | 151.17714 | 34 ft | 0 kts | 188° |
| 2026-05-06 13:22 | -33.93101 | 151.17717 | 30 ft | 4 kts | 194° |
| 2026-05-06 13:22 | -33.93076 | 151.17725 | 35 ft | 4 kts | 210° |
| 2026-05-06 13:22 | -33.93058 | 151.17745 | 36 ft | 4 kts | 252° |
| 2026-05-06 13:22 | -33.93057 | 151.17771 | 36 ft | 1 kts | 291° |
| 2026-05-06 13:27 | -33.93057 | 151.17770 | 36 ft | 1 kts | 291° |
| 2026-05-06 13:27 | -33.93052 | 151.17757 | 36 ft | 3 kts | 292° |
| 2026-05-06 13:27 | -33.93041 | 151.17727 | 33 ft | 5 kts | 295° |
| 2026-05-06 13:28 | -33.93024 | 151.17677 | 36 ft | 7 kts | 288° |
| 2026-05-06 13:28 | -33.93007 | 151.17610 | 36 ft | 9 kts | 284° |
| 2026-05-06 13:28 | -33.93022 | 151.17555 | 36 ft | 6 kts | 216° |
| 2026-05-06 13:28 | -33.93066 | 151.17527 | 35 ft | 9 kts | 201° |
| 2026-05-06 13:29 | -33.93143 | 151.17530 | 35 ft | 13 kts | 168° |
| 2026-05-06 13:29 | -33.93255 | 151.17559 | 35 ft | 20 kts | 168° |
| 2026-05-06 13:29 | -33.93416 | 151.17591 | 35 ft | 27 kts | 181° |
| 2026-05-06 13:29 | -33.93622 | 151.17625 | 34 ft | 33 kts | 157° |
| 2026-05-06 13:30 | -33.93855 | 151.17737 | 27 ft | 38 kts | 154° |
| 2026-05-06 13:30 | -33.94061 | 151.17824 | 28 ft | 29 kts | 169° |
| 2026-05-06 13:30 | -33.94267 | 151.17876 | 30 ft | 32 kts | 168° |
| 2026-05-06 13:30 | -33.94488 | 151.17895 | 29 ft | 32 kts | 194° |
| 2026-05-06 13:31 | -33.94712 | 151.17934 | 29 ft | 34 kts | 167° |
| 2026-05-06 13:31 | -33.94954 | 151.17995 | 28 ft | 37 kts | 168° |
| 2026-05-06 13:31 | -33.95167 | 151.18038 | 31 ft | 12 kts | 199° |
| 2026-05-06 13:31 | -33.95203 | 151.17957 | 29 ft | 13 kts | 256° |
| 2026-05-06 13:32 | -33.95216 | 151.17893 | 29 ft | 0 kts | 257° |
| 2026-05-06 13:32 | -33.95216 | 151.17891 | 29 ft | 2 kts | 257° |
| 2026-05-06 13:32 | -33.95223 | 151.17858 | 29 ft | 6 kts | 255° |
| 2026-05-06 13:33 | -33.95235 | 151.17795 | 28 ft | 9 kts | 257° |
| 2026-05-06 13:33 | -33.95253 | 151.17694 | 27 ft | 15 kts | 259° |
| 2026-05-06 13:33 | -33.95324 | 151.17590 | 27 ft | 18 kts | 192° |
| 2026-05-06 13:33 | -33.95457 | 151.17611 | 28 ft | 21 kts | 167° |
| 2026-05-06 13:34 | -33.95617 | 151.17654 | 28 ft | 25 kts | 167° |
| 2026-05-06 13:34 | -33.95799 | 151.17700 | 29 ft | 30 kts | 168° |
| 2026-05-06 13:34 | -33.96019 | 151.17755 | 29 ft | 34 kts | 168° |
| 2026-05-06 13:34 | -33.96264 | 151.17819 | 27 ft | 38 kts | 167° |
| 2026-05-06 13:35 | -33.96436 | 151.17912 | 29 ft | 13 kts | 107° |
| 2026-05-06 13:35 | -33.96428 | 151.18023 | 29 ft | 14 kts | 71° |
| 2026-05-06 13:35 | -33.96360 | 151.18065 | 29 ft | 11 kts | 342° |
| 2026-05-06 13:35 | -33.96276 | 151.18030 | 28 ft | 15 kts | 348° |
| 2026-05-06 13:36 | -33.96152 | 151.17993 | 27 ft | 27 kts | 348° |
| 2026-05-06 13:36 | -33.95723 | 151.17881 | 27 ft | 101 kts | 348° |
| 2026-05-06 13:36 | -33.94800 | 151.17643 | 31 ft | 168 kts | 348° |
| 2026-05-06 13:36 | -33.93581 | 151.17331 | 694 ft | 172 kts | 348° |
| 2026-05-06 13:37 | -33.92398 | 151.16953 | 1327 ft | 192 kts | 333° |
| 2026-05-06 13:37 | -33.91494 | 151.15607 | 1103 ft | 226 kts | 287° |
| 2026-05-06 13:37 | -33.91191 | 151.13676 | 1005 ft | 241 kts | 280° |
| 2026-05-06 13:37 | -33.90803 | 151.11771 | 1408 ft | 227 kts | 288° |
| 2026-05-06 13:38 | -33.90257 | 151.09932 | 2007 ft | 245 kts | 291° |
| 2026-05-06 13:38 | -33.89634 | 151.07979 | 2625 ft | 251 kts | 291° |
| 2026-05-06 13:38 | -33.89014 | 151.05958 | 3315 ft | 265 kts | 290° |
| 2026-05-06 13:38 | -33.88389 | 151.03875 | 3985 ft | 269 kts | 290° |
| 2026-05-06 13:39 | -33.87744 | 151.01737 | 4675 ft | 274 kts | 290° |
| 2026-05-06 13:39 | -33.87227 | 150.99523 | 5331 ft | 277 kts | 275° |
| 2026-05-06 13:39 | -33.87211 | 150.97201 | 6022 ft | 279 kts | 274° |
| 2026-05-06 13:39 | -33.87066 | 150.94856 | 6688 ft | 280 kts | 275° |
| 2026-05-06 13:40 | -33.86976 | 150.92540 | 7316 ft | 283 kts | 266° |
| 2026-05-06 13:40 | -33.87534 | 150.90249 | 7990 ft | 291 kts | 245° |
| 2026-05-06 13:40 | -33.88799 | 150.88311 | 8664 ft | 299 kts | 223° |
| 2026-05-06 13:40 | -33.90633 | 150.87085 | 9375 ft | 308 kts | 199° |
| 2026-05-06 13:41 | -33.92779 | 150.86804 | 10091 ft | 316 kts | 181° |
| 2026-05-06 13:41 | -33.94983 | 150.86687 | 10719 ft | 320 kts | 189° |
| 2026-05-06 13:41 | -33.97206 | 150.86333 | 11356 ft | 322 kts | 191° |
| 2026-05-06 13:41 | -33.99454 | 150.86004 | 12013 ft | 327 kts | 189° |
| 2026-05-06 13:42 | -34.01750 | 150.85744 | 12690 ft | 335 kts | 189° |
| 2026-05-06 13:42 | -34.04088 | 150.85480 | 13373 ft | 347 kts | 189° |
| 2026-05-06 13:42 | -34.06523 | 150.85178 | 14057 ft | 357 kts | 189° |
| 2026-05-06 13:42 | -34.09041 | 150.84860 | 14689 ft | 367 kts | 189° |
| 2026-05-06 13:43 | -34.11620 | 150.84545 | 15342 ft | 375 kts | 189° |
| 2026-05-06 13:43 | -34.14222 | 150.84231 | 15998 ft | 383 kts | 189° |
| 2026-05-06 13:43 | -34.16903 | 150.83903 | 16672 ft | 389 kts | 189° |
| 2026-05-06 13:43 | -34.19623 | 150.83568 | 17361 ft | 395 kts | 189° |
| 2026-05-06 13:44 | -34.22381 | 150.83229 | 18044 ft | 400 kts | 189° |
| 2026-05-06 13:44 | -34.25175 | 150.82887 | 18704 ft | 405 kts | 189° |
| 2026-05-06 13:44 | -34.27993 | 150.82541 | 19318 ft | 408 kts | 190° |
| 2026-05-06 13:44 | -34.30802 | 150.82195 | 19949 ft | 412 kts | 190° |
| 2026-05-06 13:45 | -34.33662 | 150.81844 | 20605 ft | 413 kts | 190° |
| 2026-05-06 13:45 | -34.39445 | 150.81130 | 21751 ft | 421 kts | 190° |
| 2026-05-06 13:45 | -34.42392 | 150.80767 | 22325 ft | 424 kts | 190° |
| 2026-05-06 13:46 | -34.45311 | 150.80408 | 22905 ft | 426 kts | 190° |
| 2026-05-06 13:46 | -34.48274 | 150.80042 | 23509 ft | 428 kts | 190° |
| 2026-05-06 13:46 | -34.51219 | 150.79536 | 24036 ft | 423 kts | 200° |
| 2026-05-06 13:46 | -34.53939 | 150.78398 | 24559 ft | 415 kts | 211° |
| 2026-05-06 13:47 | -34.56411 | 150.76648 | 25103 ft | 406 kts | 223° |
| 2026-05-06 13:47 | -34.58503 | 150.74411 | 25656 ft | 397 kts | 233° |
| 2026-05-06 13:47 | -34.60208 | 150.71801 | 26213 ft | 391 kts | 239° |
| 2026-05-06 13:47 | -34.61809 | 150.69173 | 26750 ft | 390 kts | 239° |
| 2026-05-06 13:48 | -34.63420 | 150.66505 | 27304 ft | 389 kts | 240° |
| 2026-05-06 13:48 | -34.65015 | 150.63842 | 27869 ft | 388 kts | 240° |
| 2026-05-06 13:48 | -34.66067 | 150.62089 | 28250 ft | 387 kts | 240° |
| 2026-05-06 13:48 | -34.68188 | 150.58564 | 29029 ft | 385 kts | 240° |
| 2026-05-06 13:49 | -34.69737 | 150.55988 | 29618 ft | 382 kts | 240° |
| 2026-05-06 13:49 | -34.71304 | 150.53376 | 30204 ft | 380 kts | 241° |
| 2026-05-06 13:49 | -34.72858 | 150.50783 | 30718 ft | 376 kts | 241° |
| 2026-05-06 13:49 | -34.74394 | 150.48221 | 31234 ft | 373 kts | 241° |
| 2026-05-06 13:50 | -34.75918 | 150.45677 | 31767 ft | 369 kts | 241° |
| 2026-05-06 13:50 | -34.77411 | 150.43182 | 32294 ft | 365 kts | 242° |
| 2026-05-06 13:50 | -34.78898 | 150.40694 | 32843 ft | 360 kts | 242° |
| 2026-05-06 13:50 | -34.80368 | 150.38235 | 33388 ft | 355 kts | 242° |
| 2026-05-06 13:51 | -34.81791 | 150.35852 | 33936 ft | 350 kts | 242° |
| 2026-05-06 13:51 | -34.83218 | 150.33462 | 34430 ft | 345 kts | 243° |
| 2026-05-06 13:51 | -34.84616 | 150.31120 | 34922 ft | 338 kts | 243° |
| 2026-05-06 13:51 | -34.85526 | 150.29593 | 35237 ft | 333 kts | 243° |
| 2026-05-06 13:52 | -34.86873 | 150.27331 | 35725 ft | 326 kts | 243° |
| 2026-05-06 13:52 | -34.88610 | 150.24412 | 36370 ft | 316 kts | 243° |
| 2026-05-06 13:52 | -34.89893 | 150.22253 | 36610 ft | 315 kts | 244° |
| 2026-05-06 13:52 | -34.91176 | 150.20087 | 36815 ft | 314 kts | 244° |
| 2026-05-06 13:53 | -34.92030 | 150.18648 | 36944 ft | 315 kts | 244° |
| 2026-05-06 13:53 | -34.93319 | 150.16478 | 37066 ft | 317 kts | 244° |
| 2026-05-06 13:53 | -34.94602 | 150.14317 | 37202 ft | 318 kts | 244° |
| 2026-05-06 13:53 | -34.95908 | 150.12116 | 37349 ft | 320 kts | 244° |
| 2026-05-06 13:54 | -34.97221 | 150.09901 | 37503 ft | 321 kts | 244° |
| 2026-05-06 13:54 | -34.98532 | 150.07687 | 37659 ft | 323 kts | 244° |
| 2026-05-06 13:54 | -34.99847 | 150.05466 | 37822 ft | 323 kts | 244° |
| 2026-05-06 13:54 | -35.01153 | 150.03259 | 37981 ft | 324 kts | 244° |
| 2026-05-06 13:55 | -35.02473 | 150.01027 | 38139 ft | 324 kts | 244° |
| 2026-05-06 13:55 | -35.03796 | 149.98788 | 38307 ft | 324 kts | 244° |
| 2026-05-06 13:55 | -35.05114 | 149.96558 | 38459 ft | 324 kts | 244° |
| 2026-05-06 13:55 | -35.06440 | 149.94310 | 38631 ft | 324 kts | 244° |
| 2026-05-06 13:56 | -35.07757 | 149.92078 | 38785 ft | 324 kts | 244° |
| 2026-05-06 13:56 | -35.09057 | 149.89873 | 38903 ft | 324 kts | 244° |
| 2026-05-06 13:56 | -35.10371 | 149.87643 | 39024 ft | 323 kts | 244° |
| 2026-05-06 13:56 | -35.11683 | 149.85416 | 39138 ft | 322 kts | 244° |
| 2026-05-06 13:57 | -35.12986 | 149.83205 | 39248 ft | 318 kts | 244° |
| 2026-05-06 13:57 | -35.14280 | 149.81002 | 39331 ft | 319 kts | 244° |
| 2026-05-06 13:57 | -35.16900 | 149.76533 | 39323 ft | 326 kts | 244° |
| 2026-05-06 13:58 | -35.19558 | 149.72007 | 39368 ft | 332 kts | 244° |
| 2026-05-06 13:58 | -35.22279 | 149.67362 | 39428 ft | 338 kts | 244° |
| 2026-05-06 13:59 | -35.25032 | 149.62658 | 39485 ft | 344 kts | 244° |
| 2026-05-06 13:59 | -35.27849 | 149.57837 | 39547 ft | 351 kts | 244° |
| 2026-05-06 14:00 | -35.30702 | 149.52949 | 39612 ft | 357 kts | 243° |
| 2026-05-06 14:00 | -35.33623 | 149.47937 | 39688 ft | 364 kts | 243° |
| 2026-05-06 14:01 | -35.36583 | 149.42851 | 39742 ft | 371 kts | 243° |
| 2026-05-06 14:01 | -35.39617 | 149.37629 | 39807 ft | 378 kts | 243° |
| 2026-05-06 14:02 | -35.42684 | 149.32344 | 39858 ft | 386 kts | 243° |
| 2026-05-06 14:02 | -35.45831 | 149.26911 | 39944 ft | 393 kts | 243° |
| 2026-05-06 14:03 | -35.49018 | 149.21402 | 39983 ft | 401 kts | 243° |
| 2026-05-06 14:03 | -35.52282 | 149.15750 | 40055 ft | 408 kts | 242° |
| 2026-05-06 14:04 | -35.55583 | 149.10025 | 40102 ft | 416 kts | 242° |
| 2026-05-06 14:04 | -35.58962 | 149.04155 | 40105 ft | 424 kts | 242° |
| 2026-05-06 14:05 | -35.62399 | 148.98174 | 40104 ft | 431 kts | 242° |
| 2026-05-06 14:05 | -35.65867 | 148.92126 | 40101 ft | 438 kts | 242° |
| 2026-05-06 14:06 | -35.69413 | 148.85935 | 40107 ft | 445 kts | 242° |
| 2026-05-06 14:06 | -35.72992 | 148.79678 | 40105 ft | 447 kts | 242° |
| 2026-05-06 14:07 | -35.76565 | 148.73411 | 40106 ft | 453 kts | 242° |
| 2026-05-06 14:07 | -35.80218 | 148.66999 | 40105 ft | 459 kts | 242° |
| 2026-05-06 14:08 | -35.83891 | 148.60536 | 40100 ft | 465 kts | 242° |
| 2026-05-06 14:08 | -35.87625 | 148.53955 | 40107 ft | 470 kts | 242° |
| 2026-05-06 14:09 | -35.91381 | 148.47304 | 40106 ft | 475 kts | 242° |
| 2026-05-06 14:09 | -35.95155 | 148.40597 | 40100 ft | 478 kts | 241° |
| 2026-05-06 14:10 | -35.98939 | 148.33868 | 40103 ft | 479 kts | 241° |
| 2026-05-06 14:10 | -36.02736 | 148.27097 | 40094 ft | 475 kts | 242° |
| 2026-05-06 14:11 | -36.06472 | 148.20420 | 40103 ft | 474 kts | 242° |
| 2026-05-06 14:11 | -36.10234 | 148.13687 | 40107 ft | 475 kts | 242° |
| 2026-05-06 14:12 | -36.13972 | 148.06991 | 40102 ft | 476 kts | 242° |
| 2026-05-06 14:12 | -36.17749 | 148.00248 | 40101 ft | 475 kts | 242° |
| 2026-05-06 14:13 | -36.21503 | 147.93510 | 40097 ft | 474 kts | 242° |
| 2026-05-06 14:13 | -36.25229 | 147.86820 | 40097 ft | 474 kts | 242° |
| 2026-05-06 14:14 | -36.28977 | 147.80074 | 40089 ft | 474 kts | 242° |
| 2026-05-06 14:14 | -36.32697 | 147.73367 | 40086 ft | 473 kts | 242° |
| 2026-05-06 14:15 | -36.36409 | 147.66644 | 40089 ft | 475 kts | 242° |
| 2026-05-06 14:15 | -36.40143 | 147.59866 | 40069 ft | 475 kts | 242° |
| 2026-05-06 14:16 | -36.43880 | 147.53074 | 40065 ft | 475 kts | 242° |
| 2026-05-06 14:16 | -36.47607 | 147.46280 | 40070 ft | 477 kts | 242° |
| 2026-05-06 14:17 | -36.51362 | 147.39424 | 40069 ft | 482 kts | 242° |
| 2026-05-06 14:17 | -36.55141 | 147.32513 | 40064 ft | 484 kts | 242° |
| 2026-05-06 14:18 | -36.58900 | 147.25622 | 40059 ft | 484 kts | 242° |
| 2026-05-06 14:18 | -36.62667 | 147.18704 | 40063 ft | 483 kts | 242° |
| 2026-05-06 14:19 | -36.66318 | 147.11744 | 40064 ft | 476 kts | 244° |
| 2026-05-06 14:19 | -36.70021 | 147.04849 | 40059 ft | 479 kts | 240° |
| 2026-05-06 14:20 | -36.73762 | 146.98037 | 40066 ft | 477 kts | 242° |
| 2026-05-06 14:20 | -36.77462 | 146.91138 | 40061 ft | 478 kts | 241° |
| 2026-05-06 14:21 | -36.81172 | 146.84317 | 40069 ft | 477 kts | 242° |
| 2026-05-06 14:21 | -36.83021 | 146.80864 | 39858 ft | 481 kts | 242° |
| 2026-05-06 14:21 | -36.84891 | 146.77389 | 39505 ft | 478 kts | 242° |
| 2026-05-06 14:22 | -36.86747 | 146.73962 | 39058 ft | 473 kts | 242° |
| 2026-05-06 14:22 | -36.88573 | 146.70577 | 38582 ft | 459 kts | 242° |
| 2026-05-06 14:22 | -36.90293 | 146.67385 | 38007 ft | 437 kts | 243° |
| 2026-05-06 14:22 | -36.91996 | 146.64188 | 37493 ft | 446 kts | 243° |
| 2026-05-06 14:23 | -36.93736 | 146.60920 | 36930 ft | 451 kts | 243° |
| 2026-05-06 14:23 | -36.95495 | 146.57656 | 36388 ft | 450 kts | 244° |
| 2026-05-06 14:23 | -36.97217 | 146.54461 | 35871 ft | 446 kts | 244° |
| 2026-05-06 14:23 | -36.98929 | 146.51254 | 35337 ft | 441 kts | 245° |
| 2026-05-06 14:24 | -37.00630 | 146.48059 | 34828 ft | 436 kts | 245° |
| 2026-05-06 14:24 | -37.02312 | 146.44909 | 34322 ft | 432 kts | 245° |
| 2026-05-06 14:24 | -37.03975 | 146.41796 | 33752 ft | 427 kts | 246° |
| 2026-05-06 14:24 | -37.05622 | 146.38700 | 33077 ft | 425 kts | 246° |
| 2026-05-06 14:25 | -37.07238 | 146.35660 | 32417 ft | 423 kts | 246° |
| 2026-05-06 14:25 | -37.08872 | 146.32589 | 31770 ft | 421 kts | 246° |
| 2026-05-06 14:25 | -37.10491 | 146.29544 | 31138 ft | 419 kts | 246° |
| 2026-05-06 14:25 | -37.12099 | 146.26514 | 30519 ft | 416 kts | 247° |
| 2026-05-06 14:26 | -37.13680 | 146.23532 | 29876 ft | 414 kts | 246° |
| 2026-05-06 14:26 | -37.15268 | 146.20535 | 29161 ft | 412 kts | 246° |
| 2026-05-06 14:26 | -37.16857 | 146.17536 | 28467 ft | 409 kts | 246° |
| 2026-05-06 14:26 | -37.18426 | 146.14569 | 27783 ft | 406 kts | 246° |
| 2026-05-06 14:27 | -37.19961 | 146.11665 | 27133 ft | 403 kts | 246° |
| 2026-05-06 14:27 | -37.21509 | 146.08731 | 26483 ft | 400 kts | 247° |
| 2026-05-06 14:27 | -37.23041 | 146.05830 | 25850 ft | 396 kts | 247° |
| 2026-05-06 14:27 | -37.24559 | 146.02949 | 25234 ft | 393 kts | 247° |
| 2026-05-06 14:28 | -37.26041 | 146.00135 | 24643 ft | 389 kts | 247° |
| 2026-05-06 14:28 | -37.27528 | 145.97311 | 24037 ft | 386 kts | 247° |
| 2026-05-06 14:28 | -37.29003 | 145.94505 | 23387 ft | 382 kts | 247° |
| 2026-05-06 14:28 | -37.30462 | 145.91726 | 22665 ft | 377 kts | 247° |
| 2026-05-06 14:29 | -37.31898 | 145.88993 | 21982 ft | 373 kts | 247° |
| 2026-05-06 14:29 | -37.33304 | 145.86307 | 21313 ft | 370 kts | 247° |
| 2026-05-06 14:29 | -37.34675 | 145.83720 | 20611 ft | 340 kts | 247° |
| 2026-05-06 14:29 | -37.35938 | 145.81330 | 19913 ft | 316 kts | 248° |
| 2026-05-06 14:30 | -37.37102 | 145.79079 | 19238 ft | 304 kts | 248° |
| 2026-05-06 14:30 | -37.38267 | 145.76813 | 18603 ft | 311 kts | 248° |
| 2026-05-06 14:30 | -37.39466 | 145.74503 | 17918 ft | 316 kts | 246° |
| 2026-05-06 14:30 | -37.40664 | 145.72228 | 17237 ft | 316 kts | 245° |
| 2026-05-06 14:31 | -37.41878 | 145.69918 | 16549 ft | 315 kts | 245° |
| 2026-05-06 14:31 | -37.43080 | 145.67607 | 15894 ft | 315 kts | 244° |
| 2026-05-06 14:31 | -37.44284 | 145.65289 | 15243 ft | 317 kts | 243° |
| 2026-05-06 14:31 | -37.45500 | 145.62954 | 14620 ft | 321 kts | 242° |
| 2026-05-06 14:32 | -37.46746 | 145.60584 | 13991 ft | 325 kts | 241° |
| 2026-05-06 14:32 | -37.47986 | 145.58236 | 13306 ft | 326 kts | 240° |
| 2026-05-06 14:32 | -37.49244 | 145.55842 | 12640 ft | 328 kts | 240° |
| 2026-05-06 14:32 | -37.50488 | 145.53467 | 11956 ft | 329 kts | 239° |
| 2026-05-06 14:33 | -37.51770 | 145.51017 | 11296 ft | 328 kts | 239° |
| 2026-05-06 14:33 | -37.53016 | 145.48640 | 10635 ft | 318 kts | 238° |
| 2026-05-06 14:33 | -37.54179 | 145.46424 | 10033 ft | 288 kts | 238° |
| 2026-05-06 14:33 | -37.55210 | 145.44454 | 9726 ft | 261 kts | 238° |
| 2026-05-06 14:34 | -37.56201 | 145.42551 | 9501 ft | 257 kts | 238° |
| 2026-05-06 14:34 | -37.57173 | 145.40688 | 9250 ft | 251 kts | 238° |
| 2026-05-06 14:34 | -37.58131 | 145.38852 | 8999 ft | 249 kts | 237° |
| 2026-05-06 14:34 | -37.59083 | 145.37028 | 8732 ft | 247 kts | 237° |
| 2026-05-06 14:35 | -37.60011 | 145.35247 | 8481 ft | 245 kts | 237° |
| 2026-05-06 14:35 | -37.60949 | 145.33449 | 8221 ft | 245 kts | 237° |
| 2026-05-06 14:35 | -37.61883 | 145.31653 | 7960 ft | 243 kts | 237° |
| 2026-05-06 14:35 | -37.62810 | 145.29873 | 7704 ft | 242 kts | 237° |
| 2026-05-06 14:36 | -37.63711 | 145.28143 | 7429 ft | 224 kts | 237° |
| 2026-05-06 14:36 | -37.64483 | 145.26600 | 7128 ft | 198 kts | 242° |
| 2026-05-06 14:36 | -37.64851 | 145.25008 | 6807 ft | 182 kts | 258° |
| 2026-05-06 14:36 | -37.65000 | 145.23490 | 6512 ft | 165 kts | 258° |
| 2026-05-06 14:37 | -37.65142 | 145.22136 | 6203 ft | 145 kts | 257° |
| 2026-05-06 14:37 | -37.65265 | 145.20946 | 5873 ft | 130 kts | 257° |
| 2026-05-06 14:37 | -37.65383 | 145.19841 | 5554 ft | 128 kts | 257° |
| 2026-05-06 14:37 | -37.65501 | 145.18725 | 5154 ft | 131 kts | 257° |
| 2026-05-06 14:38 | -37.65616 | 145.17610 | 4655 ft | 126 kts | 257° |
| 2026-05-06 14:38 | -37.65730 | 145.16515 | 4150 ft | 123 kts | 258° |
| 2026-05-06 14:38 | -37.65841 | 145.15455 | 3689 ft | 124 kts | 258° |
| 2026-05-06 14:38 | -37.65953 | 145.14376 | 3222 ft | 124 kts | 260° |
| 2026-05-06 14:39 | -37.66060 | 145.13316 | 3028 ft | 119 kts | 260° |
| 2026-05-06 14:39 | -37.66169 | 145.12263 | 3034 ft | 121 kts | 260° |
| 2026-05-06 14:39 | -37.66278 | 145.11198 | 3029 ft | 121 kts | 260° |
| 2026-05-06 14:39 | -37.66388 | 145.10127 | 3028 ft | 126 kts | 260° |
| 2026-05-06 14:40 | -37.66498 | 145.09044 | 3031 ft | 124 kts | 260° |
| 2026-05-06 14:40 | -37.66611 | 145.07959 | 3025 ft | 125 kts | 259° |
| 2026-05-06 14:40 | -37.66720 | 145.06874 | 3024 ft | 127 kts | 260° |
| 2026-05-06 14:40 | -37.66834 | 145.05774 | 3046 ft | 126 kts | 260° |
| 2026-05-06 14:41 | -37.67038 | 145.04697 | 3030 ft | 124 kts | 252° |
| 2026-05-06 14:41 | -37.67186 | 145.03994 | 3029 ft | 125 kts | 255° |
| 2026-05-06 14:41 | -37.67203 | 145.02895 | 3034 ft | 125 kts | 269° |
| 2026-05-06 14:41 | -37.67168 | 145.01416 | 3037 ft | 126 kts | 268° |
| 2026-05-06 14:42 | -37.67139 | 145.00681 | 2998 ft | 129 kts | 268° |
| 2026-05-06 14:42 | -37.67060 | 144.99177 | 2775 ft | 124 kts | 269° |
| 2026-05-06 14:42 | -37.67017 | 144.98460 | 2649 ft | 122 kts | 269° |
| 2026-05-06 14:42 | -37.66955 | 144.97393 | 2490 ft | 122 kts | 269° |
| 2026-05-06 14:43 | -37.66893 | 144.96332 | 2316 ft | 120 kts | 269° |
| 2026-05-06 14:43 | -37.66831 | 144.95274 | 2150 ft | 121 kts | 269° |
| 2026-05-06 14:43 | -37.66771 | 144.94231 | 1986 ft | 121 kts | 269° |
| 2026-05-06 14:43 | -37.66711 | 144.93167 | 1816 ft | 122 kts | 269° |
| 2026-05-06 14:44 | -37.66648 | 144.92092 | 1644 ft | 123 kts | 270° |
| 2026-05-06 14:44 | -37.66584 | 144.91003 | 1474 ft | 124 kts | 270° |
| 2026-05-06 14:44 | -37.66523 | 144.89911 | 1280 ft | 125 kts | 270° |
| 2026-05-06 14:45 | -37.66396 | 144.87692 | 914 ft | 133 kts | 271° |
| 2026-05-06 14:45 | -37.66327 | 144.86525 | 727 ft | 134 kts | 271° |
| 2026-05-06 14:45 | -37.66260 | 144.85333 | 535 ft | 135 kts | 272° |
| 2026-05-06 14:45 | -37.66187 | 144.84205 | 411 ft | 108 kts | 278° |
| 2026-05-06 14:46 | -37.66150 | 144.83601 | 417 ft | 31 kts | 274° |
| 2026-05-06 14:46 | -37.66143 | 144.83455 | 412 ft | 14 kts | 273° |
| 2026-05-06 14:46 | -37.66136 | 144.83316 | 414 ft | 18 kts | 274° |
| 2026-05-06 14:46 | -37.66134 | 144.83147 | 416 ft | 20 kts | 266° |
| 2026-05-06 14:47 | -37.66162 | 144.82961 | 413 ft | 23 kts | 251° |
| 2026-05-06 14:47 | -37.66232 | 144.82766 | 408 ft | 25 kts | 239° |
| 2026-05-06 14:47 | -37.66368 | 144.82688 | 408 ft | 21 kts | 161° |
| 2026-05-06 14:47 | -37.66445 | 144.82814 | 404 ft | 17 kts | 99° |
| 2026-05-06 14:48 | -37.66454 | 144.82965 | 415 ft | 17 kts | 95° |
| 2026-05-06 14:48 | -37.66464 | 144.83116 | 409 ft | 18 kts | 95° |
| 2026-05-06 14:48 | -37.66473 | 144.83275 | 410 ft | 19 kts | 94° |
| 2026-05-06 14:48 | -37.66483 | 144.83446 | 410 ft | 20 kts | 94° |
| 2026-05-06 14:49 | -37.66493 | 144.83631 | 410 ft | 21 kts | 94° |
| 2026-05-06 14:49 | -37.66505 | 144.83821 | 404 ft | 22 kts | 95° |
| 2026-05-06 14:49 | -37.66517 | 144.84019 | 406 ft | 22 kts | 94° |
| 2026-05-06 14:49 | -37.66527 | 144.84210 | 416 ft | 21 kts | 93° |
| 2026-05-06 14:50 | -37.66517 | 144.84387 | 409 ft | 19 kts | 81° |
| 2026-05-06 14:50 | -37.66498 | 144.84552 | 413 ft | 19 kts | 82° |
| 2026-05-06 14:50 | -37.66480 | 144.84712 | 414 ft | 18 kts | 85° |
| 2026-05-06 14:50 | -37.66540 | 144.84794 | 412 ft | 12 kts | 169° |
| 2026-05-06 14:51 | -37.66617 | 144.84795 | 412 ft | 11 kts | 177° |
| 2026-05-06 14:51 | -37.66696 | 144.84808 | 412 ft | 11 kts | 156° |
| 2026-05-06 14:51 | -37.66723 | 144.84858 | 410 ft | 4 kts | 83° |
| 2026-05-06 14:51 | -37.66720 | 144.84884 | 407 ft | 0 kts | 82° |